createdAt,value
2019-03-20T00:01:43.963Z,88.77
2019-03-20T00:04:14.781Z,81.87
2019-03-20T00:06:48.155Z,75.60
2019-03-20T00:09:21.450Z,80.07
2019-03-20T00:11:54.727Z,85.27
2019-03-20T00:14:28.062Z,81.00
2019-03-20T00:17:03.918Z,86.43
2019-03-20T00:19:36.436Z,86.83
2019-03-20T00:24:50.081Z,91.40
2019-03-20T00:27:23.461Z,85.30
2019-03-20T00:33:36.168Z,88.07
2019-03-20T00:36:09.549Z,82.57
2019-03-20T00:38:44.157Z,90.03
2019-03-20T00:41:17.579Z,74.83
2019-03-20T00:43:50.885Z,70.70
2019-03-20T00:46:24.568Z,70.67
2019-03-20T00:48:58.005Z,76.97
2019-03-20T00:51:31.391Z,86.00
2019-03-20T00:54:04.798Z,77.53
2019-03-20T00:56:38.068Z,74.60
2019-03-20T00:59:11.471Z,78.17
2019-03-20T01:01:44.836Z,73.80
2019-03-20T01:04:18.234Z,73.13
2019-03-20T01:07:22.334Z,75.93
2019-03-20T01:09:37.312Z,64.33
2019-03-20T01:12:11.003Z,67.30
2019-03-20T01:14:44.402Z,66.60
2019-03-20T01:17:34.012Z,63.53
2019-03-20T01:20:14.715Z,57.13
2019-03-20T01:22:48.301Z,67.80
2019-03-20T01:25:22.415Z,63.23
2019-03-20T01:27:55.690Z,59.30
2019-03-20T01:53:50.222Z,52.93
2019-03-20T01:56:31.184Z,60.37
2019-03-20T01:59:04.431Z,75.53
2019-03-20T02:01:37.712Z,78.03
2019-03-20T02:04:10.992Z,77.43
2019-03-20T02:06:44.303Z,98.03
2019-03-20T02:09:17.685Z,128.37
2019-03-20T02:11:50.988Z,107.97
2019-03-20T02:14:24.326Z,94.47
2019-03-20T02:46:22.422Z,68.33
2019-03-20T02:48:55.857Z,59.00
2019-03-20T02:51:41.392Z,64.57
2019-03-20T02:54:14.763Z,71.00
2019-03-20T02:56:48.184Z,62.30
2019-03-20T02:59:22.063Z,86.67
2019-03-20T03:01:55.372Z,129.67
2019-03-20T03:04:28.705Z,157.27
2019-03-20T03:07:02.131Z,152.23
2019-03-20T03:09:35.568Z,164.73
2019-03-20T03:12:11.000Z,143.10
2019-03-20T03:14:44.401Z,158.77
2019-03-20T03:17:17.824Z,105.13
2019-03-20T03:19:51.155Z,106.73
2019-03-20T03:22:24.545Z,98.70
2019-03-20T03:24:57.918Z,99.13
2019-03-20T03:27:31.572Z,71.73
2019-03-20T03:30:11.481Z,67.27
2019-03-20T03:32:44.908Z,60.50
2019-03-20T03:42:07.882Z,58.80
2019-03-20T03:44:41.260Z,51.03
2019-03-20T03:47:14.780Z,49.57
2019-03-20T03:49:48.049Z,50.20
2019-03-20T03:52:21.385Z,56.17
2019-03-20T03:54:54.644Z,46.20
2019-03-20T03:57:28.054Z,51.83
2019-03-20T04:00:01.492Z,47.33
2019-03-20T04:02:34.889Z,137.57
2019-03-20T04:05:08.170Z,100.40
2019-03-20T04:07:41.512Z,166.33
2019-03-20T04:10:16.643Z,113.57
2019-03-20T04:13:05.565Z,93.80
2019-03-20T04:15:36.535Z,59.40
2019-03-20T04:18:09.970Z,82.13
2019-03-20T04:20:43.325Z,70.73
2019-03-20T04:23:16.653Z,63.93
2019-03-20T04:25:51.112Z,52.63
2019-03-20T04:28:24.494Z,71.47
2019-03-20T04:30:57.938Z,53.57
2019-03-20T04:33:31.305Z,49.67
2019-03-20T04:36:05.694Z,57.23
2019-03-20T04:38:39.077Z,44.23
2019-03-20T04:41:13.652Z,46.23
2019-03-20T04:43:47.024Z,61.23
2019-03-20T04:46:22.221Z,64.07
2019-03-20T04:48:55.502Z,59.73
2019-03-20T04:51:28.973Z,55.57
2019-03-20T04:54:02.256Z,55.30
2019-03-20T04:56:35.640Z,60.70
2019-03-20T04:59:08.933Z,119.43
2019-03-20T05:01:42.382Z,137.30
2019-03-20T05:04:15.751Z,105.57
2019-03-20T05:06:58.304Z,136.67
2019-03-20T05:09:24.062Z,116.80
2019-03-20T05:11:57.510Z,122.70
2019-03-20T05:14:30.950Z,121.93
2019-03-20T05:17:04.319Z,124.53
2019-03-20T05:19:37.609Z,80.57
2019-03-20T05:22:11.172Z,71.60
2019-03-20T05:24:45.451Z,61.93
2019-03-20T05:27:18.794Z,67.13
2019-03-20T05:29:52.064Z,62.33
2019-03-20T05:32:25.480Z,78.50
2019-03-20T05:35:09.124Z,77.77
2019-03-20T05:37:42.509Z,68.53
2019-03-20T05:40:17.512Z,87.13
2019-03-20T05:42:50.865Z,68.70
2019-03-20T05:45:24.137Z,75.27
2019-03-20T05:47:57.589Z,64.43
2019-03-20T05:50:31.023Z,60.80
2019-03-20T05:56:28.993Z,57.63
2019-03-20T05:59:02.456Z,60.93
2019-03-20T06:01:35.780Z,71.70
2019-03-20T06:04:09.183Z,84.50
2019-03-20T06:06:43.568Z,69.17
2019-03-20T06:09:17.086Z,62.60
2019-03-20T06:11:50.557Z,55.50
2019-03-20T06:14:23.964Z,63.67
2019-03-20T06:16:57.356Z,59.43
2019-03-20T06:19:30.844Z,60.30
2019-03-20T06:22:04.154Z,77.17
2019-03-20T06:24:37.478Z,74.23
2019-03-20T06:27:10.973Z,72.90
2019-03-20T06:29:44.406Z,73.40
2019-03-20T06:32:18.053Z,101.13
2019-03-20T06:34:51.433Z,85.07
2019-03-20T06:37:32.528Z,98.27
2019-03-20T06:39:59.920Z,103.57
2019-03-20T06:42:33.345Z,106.63
2019-03-20T06:45:11.121Z,101.00
2019-03-20T06:47:44.551Z,101.63
2019-03-20T06:50:19.553Z,103.57
2019-03-20T06:52:53.004Z,88.13
2019-03-20T06:55:26.312Z,103.53
2019-03-20T06:57:59.520Z,105.07
2019-03-20T07:00:44.112Z,95.03
2019-03-20T07:03:30.688Z,90.80
2019-03-20T07:06:42.933Z,96.13
2019-03-20T07:09:44.802Z,86.63
2019-03-20T07:12:20.854Z,85.57
2019-03-20T07:14:54.234Z,80.67
2019-03-20T07:17:27.540Z,84.43
2019-03-20T07:20:02.072Z,79.57
2019-03-20T07:22:35.393Z,81.43
2019-03-20T07:25:11.827Z,83.90
2019-03-20T07:27:45.186Z,75.53
2019-03-20T07:30:18.644Z,61.67
2019-03-20T07:32:52.010Z,70.83
2019-03-20T07:35:25.402Z,66.20
2019-03-20T07:37:58.770Z,74.47
2019-03-20T07:40:32.049Z,78.53
2019-03-20T07:43:09.445Z,75.60
2019-03-20T07:45:43.892Z,68.50
2019-03-20T07:48:22.088Z,75.23
2019-03-20T07:50:52.193Z,66.83
2019-03-20T07:53:25.877Z,62.67
2019-03-20T07:56:00.251Z,64.83
2019-03-20T07:58:33.619Z,60.37
2019-03-20T08:01:07.080Z,57.90
2019-03-20T08:03:40.422Z,62.13
2019-03-20T08:06:15.104Z,40.80
2019-03-20T08:08:48.506Z,47.97
2019-03-20T08:11:21.895Z,38.57
2019-03-20T08:13:55.195Z,37.13
2019-03-20T08:16:28.517Z,35.60
2019-03-20T08:19:01.899Z,25.87
2019-03-20T08:21:35.188Z,26.60
2019-03-20T08:24:08.604Z,26.10
2019-03-20T08:26:50.699Z,23.47
2019-03-20T08:29:24.055Z,24.00
2019-03-20T08:31:57.965Z,29.47
2019-03-20T08:34:31.351Z,24.97
2019-03-20T08:37:04.696Z,28.47
2019-03-20T08:39:39.511Z,37.50
2019-03-20T08:42:12.954Z,33.00
2019-03-20T08:44:47.223Z,32.27
2019-03-20T08:47:20.691Z,25.13
2019-03-20T08:49:54.088Z,31.03
2019-03-20T08:52:27.667Z,26.00
2019-03-20T08:55:01.133Z,24.37
2019-03-20T08:57:34.542Z,23.37
2019-03-20T09:00:20.035Z,35.70
2019-03-20T09:02:53.601Z,20.43
2019-03-20T09:05:27.006Z,27.00
2019-03-20T09:08:00.380Z,24.90
2019-03-20T09:10:33.782Z,23.83
2019-03-20T09:13:07.219Z,30.17
2019-03-20T09:15:40.592Z,16.90
2019-03-20T09:18:13.973Z,18.97
2019-03-20T09:20:47.355Z,20.73
2019-03-20T09:23:20.769Z,22.33
2019-03-20T09:25:54.082Z,20.63
2019-03-20T09:28:27.411Z,18.80
2019-03-20T09:31:00.762Z,14.63
2019-03-20T09:33:35.357Z,23.57
2019-03-20T09:36:08.763Z,26.17
2019-03-20T09:38:43.686Z,28.03
2019-03-20T09:41:18.214Z,14.00
2019-03-20T09:43:51.562Z,12.87
2019-03-20T09:46:24.990Z,16.57
2019-03-20T09:48:58.465Z,20.30
2019-03-20T09:51:32.882Z,17.17
2019-03-20T09:54:06.302Z,13.93
2019-03-20T09:56:39.661Z,24.70
2019-03-20T09:59:12.991Z,14.97
2019-03-20T10:01:46.433Z,110.97
2019-03-20T10:04:19.849Z,20.87
2019-03-20T10:06:58.421Z,26.60
2019-03-20T10:09:32.329Z,10.47
2019-03-20T10:15:44.517Z,24.25
2019-03-20T10:18:17.881Z,12.43
2019-03-20T10:20:54.352Z,11.57
2019-03-20T10:23:27.652Z,12.00
2019-03-20T10:26:01.027Z,14.00
2019-03-20T10:28:34.463Z,15.63
2019-03-20T10:31:07.763Z,14.07
2019-03-20T10:33:41.190Z,10.60
2019-03-20T10:36:14.578Z,12.40
2019-03-20T10:38:49.191Z,7.58
2019-03-20T10:41:22.503Z,16.90
2019-03-20T10:43:55.893Z,16.27
2019-03-20T10:49:33.825Z,18.60
2019-03-20T10:52:07.120Z,15.03
2019-03-20T10:54:40.547Z,13.90
2019-03-20T10:57:13.925Z,13.60
2019-03-20T10:59:47.312Z,15.03
2019-03-20T11:02:34.412Z,14.63
2019-03-20T11:05:09.250Z,18.30
2019-03-20T11:07:49.185Z,14.67
2019-03-20T11:10:24.614Z,13.67
2019-03-20T11:13:02.431Z,14.73
2019-03-20T11:15:35.795Z,12.70
2019-03-20T11:18:09.173Z,12.13
2019-03-20T11:20:43.512Z,16.63
2019-03-20T11:23:16.900Z,13.43
2019-03-20T11:25:50.473Z,6.83
2019-03-20T11:28:23.854Z,18.80
2019-03-20T11:30:57.093Z,16.48
2019-03-20T11:33:30.491Z,38.13
2019-03-20T11:36:03.843Z,17.82
2019-03-20T11:38:37.161Z,15.33
2019-03-20T11:41:10.522Z,33.20
2019-03-20T11:43:43.926Z,11.75
2019-03-20T11:46:17.294Z,11.97
2019-03-20T11:48:50.724Z,17.80
2019-03-20T11:51:24.533Z,8.03
2019-03-20T11:53:57.855Z,9.63
2019-03-20T11:56:31.261Z,12.00
2019-03-20T11:59:04.587Z,17.62
2019-03-20T12:04:30.861Z,10.40
2019-03-20T12:07:04.233Z,15.68
2019-03-20T12:09:41.344Z,13.98
2019-03-20T12:12:13.619Z,14.20
2019-03-20T12:14:47.016Z,13.90
2019-03-20T12:17:20.419Z,15.28
2019-03-20T12:19:53.846Z,13.83
2019-03-20T12:22:27.178Z,15.30
2019-03-20T12:25:00.656Z,15.75
2019-03-20T12:27:33.994Z,9.63
2019-03-20T12:30:14.509Z,10.30
2019-03-20T12:32:47.864Z,13.98
2019-03-20T12:35:22.154Z,10.08
2019-03-20T12:37:55.513Z,11.38
2019-03-20T12:40:30.815Z,13.05
2019-03-20T12:43:04.390Z,9.60
2019-03-20T12:45:39.025Z,10.25
2019-03-20T12:48:21.185Z,10.70
2019-03-20T12:50:54.690Z,14.03
2019-03-20T12:53:36.326Z,8.55
2019-03-20T12:56:09.614Z,10.40
2019-03-20T12:58:43.052Z,10.10
2019-03-20T13:01:17.619Z,11.10
2019-03-20T13:03:50.889Z,7.83
2019-03-20T13:06:24.175Z,9.43
2019-03-20T13:08:57.570Z,9.85
2019-03-20T13:11:30.972Z,16.27
2019-03-20T13:14:04.423Z,18.35
2019-03-20T13:16:37.817Z,13.60
2019-03-20T13:19:11.204Z,19.65
2019-03-20T13:21:44.592Z,18.77
2019-03-20T13:24:17.851Z,14.60
2019-03-20T13:26:51.162Z,17.45
2019-03-20T13:29:24.542Z,15.03
2019-03-20T13:31:59.101Z,11.45
2019-03-20T13:34:32.486Z,14.75
2019-03-20T13:37:08.954Z,39.13
2019-03-20T13:39:42.231Z,42.65
2019-03-20T13:42:15.611Z,22.55
2019-03-20T13:44:48.979Z,12.80
2019-03-20T13:47:23.304Z,12.75
2019-03-20T13:49:57.851Z,11.10
2019-03-20T13:52:31.209Z,8.15
2019-03-20T13:55:08.929Z,13.53
2019-03-20T13:57:42.382Z,12.63
2019-03-20T14:00:26.906Z,17.40
2019-03-20T14:03:00.167Z,11.83
2019-03-20T14:05:33.554Z,14.90
2019-03-20T14:08:07.065Z,11.65
2019-03-20T14:10:50.504Z,15.43
2019-03-20T14:13:15.663Z,70.57
2019-03-20T14:15:49.080Z,40.00
2019-03-20T14:18:22.469Z,8.75
2019-03-20T14:20:55.886Z,11.35
2019-03-20T14:23:29.287Z,7.80
2019-03-20T14:26:02.615Z,9.58
2019-03-20T14:28:36.021Z,16.30
2019-03-20T14:31:09.400Z,15.72
2019-03-20T14:33:44.359Z,16.50
2019-03-20T14:36:19.173Z,12.33
2019-03-20T14:38:55.011Z,21.25
2019-03-20T14:41:28.833Z,8.23
2019-03-20T14:44:03.359Z,8.35
2019-03-20T14:46:37.555Z,9.03
2019-03-20T14:49:12.900Z,11.38
2019-03-20T14:51:47.762Z,13.03
2019-03-20T14:54:22.742Z,11.93
2019-03-20T14:56:57.714Z,17.75
2019-03-20T14:59:34.793Z,21.62
2019-03-20T15:02:08.952Z,11.55
2019-03-20T15:04:42.332Z,17.52
2019-03-20T15:07:18.322Z,21.60
2019-03-20T15:09:54.933Z,57.75
2019-03-20T15:12:29.246Z,51.48
2019-03-20T15:15:03.322Z,88.58
2019-03-20T15:17:38.283Z,69.90
2019-03-20T15:20:11.717Z,21.90
2019-03-20T15:22:45.911Z,43.35
2019-03-20T15:25:22.964Z,38.25
2019-03-20T15:28:03.303Z,34.85
2019-03-20T15:30:36.757Z,33.15
2019-03-20T15:33:11.438Z,47.10
2019-03-20T15:35:44.782Z,40.80
2019-03-20T15:38:18.018Z,42.33
2019-03-20T15:40:56.097Z,32.63
2019-03-20T15:43:26.290Z,29.72
2019-03-20T15:46:00.893Z,17.00
2019-03-20T15:48:35.908Z,20.43
2019-03-20T15:51:09.232Z,19.45
2019-03-20T15:53:43.652Z,19.98
2019-03-20T15:56:25.563Z,17.12
2019-03-20T15:58:53.346Z,10.68
2019-03-20T16:01:26.712Z,10.25
2019-03-20T16:04:05.593Z,11.18
2019-03-20T16:06:39.083Z,14.30
2019-03-20T16:09:12.668Z,24.10
2019-03-20T16:11:48.868Z,17.30
2019-03-20T16:14:22.319Z,15.95
2019-03-20T16:16:55.606Z,14.63
2019-03-20T16:19:28.951Z,15.28
2019-03-20T16:22:04.901Z,15.43
2019-03-20T16:24:38.302Z,15.28
2019-03-20T16:27:11.661Z,17.97
2019-03-20T16:29:45.040Z,16.25
2019-03-20T16:32:18.406Z,19.17
2019-03-20T16:34:53.017Z,17.63
2019-03-20T16:37:26.371Z,49.77
2019-03-20T16:39:59.856Z,22.20
2019-03-20T16:42:33.235Z,28.03
2019-03-20T16:45:19.384Z,27.77
2019-03-20T16:47:52.699Z,69.07
2019-03-20T16:50:26.127Z,31.17
2019-03-20T16:52:59.580Z,33.03
2019-03-20T16:55:33.806Z,70.37
2019-03-20T16:58:08.752Z,184.30
2019-03-20T17:00:42.184Z,70.77
2019-03-20T17:03:15.546Z,75.50
2019-03-20T17:05:48.833Z,93.17
2019-03-20T17:08:22.285Z,124.17
2019-03-20T17:10:55.631Z,60.70
2019-03-20T17:13:29.072Z,49.47
2019-03-20T17:16:02.451Z,46.77
2019-03-20T17:18:35.902Z,39.50
2019-03-20T17:21:09.913Z,37.00
2019-03-20T17:23:43.381Z,32.27
2019-03-20T17:26:16.651Z,38.57
2019-03-20T17:28:50.085Z,35.03
2019-03-20T17:31:23.497Z,41.73
2019-03-20T17:33:58.606Z,38.73
2019-03-20T17:36:33.828Z,39.23
2019-03-20T17:39:10.392Z,34.13
2019-03-20T17:41:43.762Z,34.70
2019-03-20T17:44:17.765Z,35.93
2019-03-20T17:46:51.090Z,31.20
2019-03-20T17:49:25.674Z,35.50
2019-03-20T17:51:59.063Z,27.70
2019-03-20T17:54:32.602Z,26.43
2019-03-20T17:57:05.983Z,32.93
2019-03-20T17:59:39.403Z,30.10
2019-03-20T18:02:12.760Z,43.20
2019-03-20T18:04:47.353Z,47.13
2019-03-20T18:07:21.150Z,41.47
2019-03-20T18:09:54.716Z,35.97
2019-03-20T18:12:28.119Z,34.17
2019-03-20T18:15:01.560Z,35.80
2019-03-20T18:17:34.946Z,27.60
2019-03-20T18:20:17.971Z,25.67
2019-03-20T18:22:51.725Z,22.73
2019-03-20T18:25:25.675Z,22.00
2019-03-20T18:28:00.006Z,28.63
2019-03-20T18:30:42.955Z,22.93
2019-03-20T18:33:16.366Z,27.90
2019-03-20T18:35:49.758Z,24.43
2019-03-20T18:38:23.127Z,21.80
2019-03-20T18:40:57.180Z,23.93
2019-03-20T18:43:30.580Z,23.83
2019-03-20T18:46:03.832Z,18.23
2019-03-20T18:48:37.161Z,23.70
2019-03-20T18:51:12.120Z,25.00
2019-03-20T18:53:47.640Z,24.30
2019-03-20T18:56:20.368Z,27.23
2019-03-20T18:58:53.690Z,28.90
2019-03-20T19:01:27.205Z,32.47
2019-03-20T19:04:00.561Z,26.13
2019-03-20T19:06:33.990Z,33.60
2019-03-20T19:09:10.191Z,25.23
2019-03-20T19:11:43.668Z,26.20
2019-03-20T19:14:16.939Z,26.90
2019-03-20T19:17:05.200Z,34.67
2019-03-20T19:19:38.655Z,25.17
2019-03-20T19:22:12.097Z,28.67
2019-03-20T19:24:45.426Z,34.13
2019-03-20T19:27:25.333Z,62.43
2019-03-20T19:29:59.551Z,205.07
2019-03-20T19:32:32.944Z,131.37
2019-03-20T19:35:10.396Z,103.23
2019-03-20T19:37:43.881Z,59.37
2019-03-20T19:40:20.534Z,47.77
2019-03-20T19:42:55.174Z,31.63
2019-03-20T19:45:28.621Z,38.07
2019-03-20T19:48:02.112Z,69.40
2019-03-20T19:50:39.985Z,44.33
2019-03-20T19:53:14.585Z,52.20
2019-03-20T19:55:48.224Z,64.60
2019-03-20T19:58:22.847Z,95.67
2019-03-20T20:00:57.234Z,132.80
2019-03-20T20:03:33.254Z,121.00
2019-03-20T20:06:06.708Z,111.60
2019-03-20T20:08:41.221Z,196.60
2019-03-20T20:11:16.113Z,170.30
2019-03-20T20:13:49.512Z,183.07
2019-03-20T20:16:23.490Z,196.33
2019-03-20T20:18:57.042Z,197.80
2019-03-20T20:21:32.714Z,192.53
2019-03-20T20:24:06.509Z,168.50
2019-03-20T20:26:40.281Z,155.67
2019-03-20T20:29:13.660Z,142.00
2019-03-20T20:31:48.045Z,155.07
2019-03-20T20:34:24.815Z,143.80
2019-03-20T20:36:58.661Z,139.20
2019-03-20T20:39:32.608Z,121.47
2019-03-20T20:42:06.032Z,112.13
2019-03-20T20:44:39.402Z,120.60
2019-03-20T20:47:12.821Z,104.20
2019-03-20T20:49:46.113Z,99.20
2019-03-20T20:52:19.930Z,104.20
2019-03-20T20:54:53.302Z,97.33
2019-03-20T20:57:27.931Z,99.63
2019-03-20T21:00:01.227Z,191.03
2019-03-20T21:02:34.962Z,143.97
2019-03-20T21:05:09.135Z,143.87
2019-03-20T21:07:42.437Z,156.87
2019-03-20T21:10:21.224Z,174.90
2019-03-20T21:12:57.312Z,181.97
2019-03-20T21:15:37.401Z,188.73
2019-03-20T21:18:23.860Z,195.83
2019-03-20T21:20:59.353Z,207.73
2019-03-20T21:23:58.784Z,197.27
2019-03-20T21:26:58.785Z,226.23
2019-03-20T21:29:45.280Z,257.63
2019-03-20T21:32:34.683Z,341.03
2019-03-20T21:35:42.302Z,346.30
2019-03-20T21:38:13.782Z,264.80
2019-03-20T21:41:03.122Z,202.40
2019-03-20T21:43:58.980Z,194.07
2019-03-20T21:47:10.190Z,180.33
2019-03-20T21:49:43.573Z,199.10
2019-03-20T21:52:16.975Z,165.47
2019-03-20T21:55:28.891Z,179.50
2019-03-20T21:58:06.615Z,155.30
2019-03-20T22:01:20.134Z,160.87
2019-03-20T22:03:56.130Z,105.03
2019-03-20T22:07:02.208Z,77.50
2019-03-20T22:09:54.383Z,59.03
2019-03-20T22:12:50.010Z,64.47
2019-03-20T22:16:03.226Z,75.10
2019-03-20T22:19:13.806Z,79.13
2019-03-20T22:22:15.201Z,101.30
2019-03-20T22:24:58.383Z,116.23
2019-03-20T22:28:10.176Z,122.17
2019-03-20T22:30:43.550Z,147.33
2019-03-20T22:34:10.842Z,110.40
2019-03-20T22:36:44.216Z,116.33
2019-03-20T22:40:09.884Z,124.37
2019-03-20T22:43:03.977Z,135.40
2019-03-20T22:46:04.023Z,146.37
2019-03-20T22:48:47.393Z,148.13
2019-03-20T22:51:41.946Z,143.50
2019-03-20T22:54:54.209Z,146.30
2019-03-20T22:58:05.944Z,160.87
2019-03-20T23:00:39.233Z,151.63
2019-03-20T23:03:34.913Z,179.23
2019-03-20T23:06:08.515Z,170.93
2019-03-20T23:08:41.771Z,162.03
2019-03-20T23:11:15.098Z,164.10
2019-03-20T23:13:48.432Z,144.80
2019-03-20T23:16:22.553Z,75.97
2019-03-20T23:19:08.644Z,87.80
2019-03-20T23:21:38.190Z,90.90
2019-03-20T23:24:11.553Z,78.83
2019-03-20T23:26:46.342Z,64.83
2019-03-20T23:29:19.715Z,72.07
2019-03-20T23:31:53.019Z,61.93
2019-03-20T23:34:26.514Z,64.70
2019-03-20T23:36:59.919Z,51.73
2019-03-20T23:39:33.110Z,55.57
2019-03-20T23:42:07.608Z,72.03
2019-03-20T23:44:40.813Z,65.30
2019-03-20T23:47:14.111Z,94.27
2019-03-20T23:49:47.402Z,91.23
2019-03-20T23:52:20.799Z,116.83
2019-03-20T23:54:54.152Z,207.03
2019-03-20T23:57:27.604Z,207.33
